Time;durP1;ratioP1;P1;durP2;ratioP2;P2;SDS_P1;SDS_P2;PMS_P1;PMS_P2;Temp;Humidity;BMP_temperature;BMP_pressure;BME280_temperature;BME280_humidity;BME280_pressure;Samples;Min_cycle;Max_cycle;Signal;HPM_P1;HPM_P2
2023/02/23 00:00:20;;;;;;;;;37.00;33.33;;;;;12.07;100.00;100884.63;5143527;27;45267;-73
2023/02/23 00:02:49;;;;;;;;;34.67;30.67;;;;;12.13;100.00;100907.88;5121850;27;45463;-73
2023/02/23 00:05:16;;;;;;;;;34.00;31.33;;;;;12.06;100.00;100898.91;5140552;27;45200;-73
2023/02/23 00:07:43;;;;;;;;;38.33;33.00;;;;;11.99;100.00;100904.97;5124997;27;47595;-73
2023/02/23 00:10:12;;;;;;;;;37.00;33.67;;;;;11.93;100.00;100900.34;5125065;27;47290;-73
2023/02/23 00:12:38;;;;;;;;;38.33;34.67;;;;;11.92;100.00;100911.19;5143535;27;45277;-73
2023/02/23 00:15:04;;;;;;;;;32.00;31.00;;;;;11.80;100.00;100897.47;5143797;27;45299;-73
2023/02/23 00:17:30;;;;;;;;;29.00;28.67;;;;;11.77;100.00;100898.66;5143570;27;45292;-73
2023/02/23 00:19:56;;;;;;;;;30.67;29.33;;;;;11.80;100.00;100910.78;5143423;27;46481;-73
2023/02/23 00:22:26;;;;;;;;;27.33;26.00;;;;;11.70;100.00;100895.84;5143525;27;45334;-73
2023/02/23 00:24:51;;;;;;;;;27.33;23.33;;;;;11.70;100.00;100911.03;5124691;27;45415;-73
2023/02/23 00:27:19;;;;;;;;;31.33;27.67;;;;;11.67;100.00;100901.53;5143394;27;45452;-73
2023/02/23 00:29:48;;;;;;;;;25.00;25.00;;;;;11.67;100.00;100900.72;5143268;27;45480;-73
2023/02/23 00:32:18;;;;;;;;;29.00;27.33;;;;;11.56;100.00;100909.94;5143702;27;45482;-73
2023/02/23 00:34:44;;;;;;;;;26.67;26.00;;;;;11.53;100.00;100896.97;5142891;27;45318;-73
2023/02/23 00:37:11;;;;;;;;;24.67;21.67;;;;;11.47;100.00;100891.34;5143484;27;45778;-73
2023/02/23 00:39:37;;;;;;;;;27.00;24.00;;;;;11.48;100.00;100885.03;5143272;27;47099;-73
2023/02/23 00:42:05;;;;;;;;;22.33;22.33;;;;;11.46;100.00;100879.06;5143409;27;45422;-73
2023/02/23 00:44:32;;;;;;;;;27.00;24.67;;;;;11.46;100.00;100887.03;5143285;27;45345;-73
2023/02/23 00:46:58;;;;;;;;;26.00;22.33;;;;;11.45;100.00;100889.88;5124360;27;46194;-73
2023/02/23 00:49:23;;;;;;;;;23.00;20.67;;;;;11.46;100.00;100891.53;5142873;27;45582;-73
2023/02/23 00:51:49;;;;;;;;;22.67;22.00;;;;;11.53;100.00;100896.97;5124660;27;45227;-73
2023/02/23 00:54:15;;;;;;;;;23.67;19.67;;;;;11.56;100.00;100897.47;5143176;27;45461;-73
2023/02/23 00:56:41;;;;;;;;;19.33;18.33;;;;;11.64;100.00;100903.75;5143244;27;45237;-73
2023/02/23 00:59:06;;;;;;;;;18.00;18.00;;;;;11.64;100.00;100903.75;5142675;27;46150;-73
2023/02/23 01:01:32;;;;;;;;;22.00;19.67;;;;;11.62;100.00;100903.91;5143031;27;45376;-73
2023/02/23 01:03:57;;;;;;;;;22.33;21.67;;;;;11.64;100.00;100901.88;5123263;27;45377;-73
2023/02/23 01:06:23;;;;;;;;;29.33;23.00;;;;;11.67;100.00;100903.38;5138810;27;45862;-73
2023/02/23 01:08:55;;;;;;;;;17.00;16.67;;;;;11.68;100.00;100908.53;5142840;27;46615;-73
2023/02/23 01:11:22;;;;;;;;;20.33;19.67;;;;;11.72;100.00;100903.66;5142786;27;45249;-73
2023/02/23 01:13:51;;;;;;;;;26.33;25.00;;;;;11.88;100.00;100902.69;5124106;27;45387;-72
2023/02/23 01:16:20;;;;;;;;;21.33;21.33;;;;;11.72;100.00;100909.00;5142394;27;45450;-73
2023/02/23 01:18:47;;;;;;;;;21.33;19.67;;;;;11.76;100.00;100899.63;5142859;27;45321;-73
2023/02/23 01:21:22;;;;;;;;;24.00;23.00;;;;;11.79;100.00;100903.78;5123548;27;45336;-73
2023/02/23 01:23:48;;;;;;;;;28.33;23.33;;;;;11.81;100.00;100904.44;5142738;27;45295;-73
2023/02/23 01:26:18;;;;;;;;;25.00;22.00;;;;;11.95;100.00;100909.00;5142368;27;45582;-73
2023/02/23 01:28:57;;;;;;;;;23.33;19.00;;;;;11.88;100.00;100908.03;5123772;27;48015;-73
2023/02/23 01:31:24;;;;;;;;;28.00;27.67;;;;;11.85;100.00;100914.56;5142361;27;45459;-73
2023/02/23 01:33:57;;;;;;;;;29.67;27.67;;;;;11.84;100.00;100904.06;5142427;27;45467;-73
2023/02/23 01:36:27;;;;;;;;;25.33;25.33;;;;;11.80;100.00;100892.97;5142266;27;45303;-73
2023/02/23 01:38:55;;;;;;;;;29.67;29.00;;;;;11.84;100.00;100909.41;5142378;27;45345;-73
2023/02/23 01:41:21;;;;;;;;;25.67;23.67;;;;;11.78;100.00;100910.94;5142265;27;45287;-72
2023/02/23 01:44:12;;;;;;;;;30.33;28.33;;;;;11.80;100.00;100916.09;5142326;27;45360;-73
2023/02/23 01:46:41;;;;;;;;;22.33;20.33;;;;;11.79;100.00;100909.94;5109991;27;45392;-73
2023/02/23 01:49:14;;;;;;;;;24.00;23.67;;;;;11.91;100.00;100915.66;5123127;27;48187;-73
2023/02/23 01:51:42;;;;;;;;;20.33;19.67;;;;;11.86;100.00;100924.19;5137270;27;46074;-73
2023/02/23 01:54:14;;;;;;;;;25.33;21.67;;;;;11.82;100.00;100922.88;5142327;27;45321;-73
2023/02/23 01:56:43;;;;;;;;;24.67;24.00;;;;;11.76;100.00;100917.47;5141934;27;45235;-73
2023/02/23 01:59:11;;;;;;;;;25.33;23.33;;;;;11.78;100.00;100918.09;5141986;27;45376;-73
2023/02/23 02:01:39;;;;;;;;;28.67;27.33;;;;;11.74;100.00;100920.31;5123263;27;45368;-73
2023/02/23 02:04:05;;;;;;;;;28.00;24.00;;;;;11.74;100.00;100913.13;5142050;27;45362;-73
2023/02/23 02:06:32;;;;;;;;;25.00;25.00;;;;;11.71;100.00;100916.13;5141677;27;45457;-73
2023/02/23 02:09:06;;;;;;;;;31.00;28.00;;;;;11.76;100.00;100914.81;5141880;27;46184;-73
2023/02/23 02:11:37;;;;;;;;;27.00;27.00;;;;;11.73;100.00;100915.97;5141833;27;45222;-73
2023/02/23 02:14:12;;;;;;;;;33.33;30.00;;;;;11.71;100.00;100918.00;5122951;27;45297;-73
2023/02/23 02:16:49;;;;;;;;;30.00;28.67;;;;;11.60;100.00;100912.06;5141636;27;45553;-73
2023/02/23 02:19:32;;;;;;;;;33.67;29.67;;;;;11.52;100.00;100912.13;5141588;27;45371;-73
2023/02/23 02:22:41;;;;;;;;;32.00;28.00;;;;;11.55;100.00;100905.63;5141747;27;45302;-73
2023/02/23 02:25:21;;;;;;;;;36.00;32.00;;;;;11.54;100.00;100906.63;5141635;27;45301;-73
2023/02/23 02:27:56;;;;;;;;;37.00;33.00;;;;;11.52;100.00;100900.66;5141342;27;45373;-73
2023/02/23 02:30:46;;;;;;;;;34.00;31.67;;;;;11.54;100.00;100902.13;5141916;27;46210;-73
2023/02/23 02:33:44;;;;;;;;;32.67;30.33;;;;;11.56;100.00;100896.63;5142060;27;45293;-73
2023/02/23 02:36:35;;;;;;;;;39.33;34.00;;;;;11.56;100.00;100900.13;5141842;27;45271;-73
2023/02/23 02:39:34;;;;;;;;;35.67;33.00;;;;;11.58;100.00;100894.59;5123584;27;47407;-73
2023/02/23 02:42:28;;;;;;;;;32.00;31.00;;;;;11.61;100.00;100899.56;5121746;27;48497;-73
2023/02/23 02:45:09;;;;;;;;;32.67;30.67;;;;;11.57;100.00;100895.63;5141530;27;45424;-73
2023/02/23 02:47:39;;;;;;;;;37.00;31.00;;;;;11.56;100.00;100899.28;5141522;27;45453;-73
2023/02/23 02:50:40;;;;;;;;;39.33;33.00;;;;;11.57;100.00;100901.78;5140854;27;45391;-73
2023/02/23 02:53:20;;;;;;;;;30.33;29.00;;;;;11.52;100.00;100898.81;5141201;27;45280;-73
2023/02/23 02:55:47;;;;;;;;;36.00;34.00;;;;;11.60;100.00;100900.59;5141504;27;45377;-73
2023/02/23 02:58:16;;;;;;;;;38.33;34.00;;;;;11.58;100.00;100882.13;5141076;27;45478;-74
2023/02/23 04:18:28;;;;;;;;;37.33;34.33;;;;;11.11;100.00;100905.22;5143888;27;45270;-73
2023/02/23 04:20:55;;;;;;;;;43.00;36.33;;;;;11.07;100.00;100910.03;5142509;27;46501;-73
2023/02/23 04:23:21;;;;;;;;;36.00;32.33;;;;;11.06;100.00;100910.19;5143725;27;46135;-73
2023/02/23 04:25:48;;;;;;;;;36.00;33.00;;;;;11.02;100.00;100909.75;5143507;27;45287;-73
2023/02/23 04:28:13;;;;;;;;;40.33;33.33;;;;;11.03;100.00;100910.56;5143542;27;45352;-73
2023/02/23 04:30:39;;;;;;;;;36.33;33.33;;;;;10.99;100.00;100907.41;5125102;27;45365;-73
2023/02/23 04:33:05;;;;;;;;;33.67;30.67;;;;;10.96;100.00;100905.09;5143484;27;45320;-73
2023/02/23 04:35:30;;;;;;;;;39.00;33.67;;;;;10.85;100.00;100908.97;5142072;27;45355;-73
2023/02/23 04:37:56;;;;;;;;;42.67;36.00;;;;;10.81;100.00;100913.78;5143421;27;45219;-73
2023/02/23 04:40:22;;;;;;;;;39.00;33.00;;;;;10.80;100.00;100920.09;5143558;27;45484;-73
2023/02/23 04:42:47;;;;;;;;;40.00;34.67;;;;;10.82;100.00;100915.47;5143307;27;45503;-73
2023/02/23 04:45:13;;;;;;;;;37.67;34.00;;;;;10.79;100.00;100907.81;5142390;27;46147;-73
2023/02/23 04:47:38;;;;;;;;;38.67;34.67;;;;;10.78;100.00;100916.81;5143430;27;45409;-73
2023/02/23 04:50:04;;;;;;;;;10.67;9.33;;;;;10.69;100.00;100915.16;5143256;27;45219;-73
2023/02/23 04:52:30;;;;;;;;;43.67;35.67;;;;;10.73;100.00;100925.28;5134781;27;48228;-73
2023/02/23 04:54:56;;;;;;;;;39.67;33.67;;;;;10.56;100.00;100931.63;5143328;27;45326;-73
2023/02/23 04:57:21;;;;;;;;;38.67;33.67;;;;;10.50;100.00;100937.66;5143394;27;45417;-73
2023/02/23 04:59:46;;;;;;;;;39.33;36.00;;;;;10.44;100.00;100939.09;5143001;27;45377;-73
2023/02/23 05:02:12;;;;;;;;;37.00;32.33;;;;;10.36;100.00;100942.63;5143178;27;45373;-73
2023/02/23 05:04:37;;;;;;;;;39.33;32.67;;;;;10.41;100.00;100942.09;5142900;27;45341;-74
2023/02/23 05:07:03;;;;;;;;;41.67;35.67;;;;;10.32;100.00;100942.09;5143056;27;45336;-74
2023/02/23 05:09:30;;;;;;;;;42.00;36.00;;;;;10.27;100.00;100947.09;5142899;27;45479;-73
2023/02/23 05:11:55;;;;;;;;;40.00;34.00;;;;;10.30;100.00;100949.41;5142938;27;45381;-73
2023/02/23 05:14:21;;;;;;;;;36.00;32.00;;;;;10.35;100.00;100957.72;5142811;27;45305;-73
2023/02/23 05:16:47;;;;;;;;;40.00;34.00;;;;;10.38;100.00;100953.88;5143135;27;45255;-73
2023/02/23 05:19:12;;;;;;;;;35.33;31.33;;;;;10.40;100.00;100959.88;5142542;27;45493;-73
2023/02/23 05:21:38;;;;;;;;;36.33;32.00;;;;;10.38;100.00;100959.19;5142862;27;46142;-72
2023/02/23 05:24:04;;;;;;;;;42.00;34.67;;;;;10.30;100.00;100959.22;5142463;27;45306;-73
2023/02/23 05:26:30;;;;;;;;;39.33;35.00;;;;;10.28;100.00;100963.84;5142992;27;45271;-73
2023/02/23 05:28:55;;;;;;;;;43.25;35.00;;;;;10.28;100.00;100954.06;5142551;27;45854;-73
2023/02/23 05:31:22;;;;;;;;;39.33;34.00;;;;;10.29;100.00;100960.19;5142633;27;46083;-72
2023/02/23 05:33:47;;;;;;;;;45.67;38.67;;;;;10.26;100.00;100957.91;5142605;27;45384;-73
2023/02/23 05:36:15;;;;;;;;;38.33;34.33;;;;;10.22;100.00;100966.19;5142452;27;45325;-73
2023/02/23 05:38:42;;;;;;;;;40.33;33.67;;;;;10.16;100.00;100961.53;5142680;27;45171;-73
2023/02/23 05:41:10;;;;;;;;;34.33;31.67;;;;;10.13;100.00;100958.38;5142414;27;45296;-73
2023/02/23 05:43:36;;;;;;;;;31.67;26.67;;;;;10.12;100.00;100959.38;5123730;27;45322;-73
2023/02/23 05:46:09;;;;;;;;;35.67;32.67;;;;;10.03;100.00;100962.03;5141035;27;45383;-73
2023/02/23 05:48:35;;;;;;;;;31.00;28.00;;;;;10.01;100.00;100963.19;5142458;27;45368;-73
2023/02/23 05:51:04;;;;;;;;;30.33;30.33;;;;;10.02;100.00;100962.19;5141119;27;46136;-73
2023/02/23 05:53:30;;;;;;;;;28.33;26.67;;;;;10.05;100.00;100967.16;5142358;27;45328;-73
2023/02/23 05:55:55;;;;;;;;;23.33;22.33;;;;;9.98;100.00;100969.66;5123549;27;45320;-73
2023/02/23 05:58:21;;;;;;;;;34.33;32.33;;;;;9.95;100.00;100956.72;5123855;27;45326;-73
2023/02/23 06:00:46;;;;;;;;;32.00;24.00;;;;;9.97;100.00;100957.41;5123483;27;47253;-73
2023/02/23 06:03:12;;;;;;;;;27.33;25.33;;;;;10.02;100.00;100963.03;5142368;27;45354;-72
2023/02/23 06:05:37;;;;;;;;;28.33;26.33;;;;;10.04;100.00;100970.81;5142109;27;45230;-73
2023/02/23 06:08:02;;;;;;;;;31.00;28.00;;;;;10.02;100.00;100981.63;5142002;27;45278;-73
2023/02/23 06:10:28;;;;;;;;;23.00;22.00;;;;;10.09;100.00;100973.84;5141862;27;45233;-73
2023/02/23 06:12:53;;;;;;;;;23.33;23.33;;;;;10.13;100.00;100971.66;5142019;27;45256;-73
2023/02/23 06:15:18;;;;;;;;;24.33;23.00;;;;;10.15;100.00;100967.03;5142012;27;45416;-73
2023/02/23 06:17:44;;;;;;;;;28.00;23.33;;;;;10.18;100.00;100972.81;5119843;27;46033;-73
2023/02/23 06:20:10;;;;;;;;;26.00;25.33;;;;;10.21;100.00;100972.50;5135329;27;46289;-75
2023/02/23 06:22:35;;;;;;;;;29.00;24.67;;;;;10.26;100.00;100979.16;5141963;27;45401;-77
2023/02/23 06:25:03;;;;;;;;;30.00;25.33;;;;;10.28;100.00;100972.66;5140200;27;45467;-74
2023/02/23 06:27:29;;;;;;;;;29.33;25.67;;;;;10.32;100.00;100981.13;5137361;27;45839;-74
2023/02/23 06:29:54;;;;;;;;;23.67;21.00;;;;;10.35;100.00;100978.13;5127257;27;45524;-73
2023/02/23 06:32:20;;;;;;;;;30.67;27.00;;;;;10.38;100.00;100977.81;5141693;27;45406;-74
2023/02/23 06:34:45;;;;;;;;;27.00;22.00;;;;;10.40;100.00;100973.16;5141578;27;45357;-74
2023/02/23 06:37:10;;;;;;;;;23.67;22.33;;;;;10.30;100.00;100985.78;5141613;27;45436;-74
2023/02/23 06:39:36;;;;;;;;;28.33;25.00;;;;;10.32;100.00;100989.09;5130590;27;45232;-73
2023/02/23 06:42:01;;;;;;;;;28.00;25.33;;;;;10.34;100.00;100998.56;5131000;27;45370;-76
2023/02/23 06:44:27;;;;;;;;;25.33;25.00;;;;;10.40;100.00;100991.75;5141487;27;45266;-76
2023/02/23 06:46:52;;;;;;;;;25.33;24.67;;;;;10.37;100.00;100984.13;5141371;27;45617;-73
2023/02/23 06:49:17;;;;;;;;;22.67;21.67;;;;;10.38;100.00;100983.13;5122371;27;48234;-73
2023/02/23 06:51:43;;;;;;;;;23.67;21.00;;;;;10.36;100.00;100980.63;5141484;27;45286;-72
2023/02/23 06:54:08;;;;;;;;;23.00;20.00;;;;;10.31;100.00;100976.81;5140248;27;45474;-72
2023/02/23 06:56:33;;;;;;;;;26.00;23.33;;;;;10.34;100.00;100976.47;5141277;27;45364;-71
2023/02/23 06:58:59;;;;;;;;;22.33;21.00;;;;;10.34;100.00;100982.63;5140980;27;45259;-71
2023/02/23 07:01:24;;;;;;;;;22.33;21.00;;;;;10.33;100.00;100985.47;5141196;27;45664;-71
2023/02/23 07:03:49;;;;;;;;;25.67;24.00;;;;;10.32;100.00;100983.78;5122686;27;45399;-72
2023/02/23 07:06:15;;;;;;;;;20.00;19.00;;;;;10.34;100.00;100984.44;5141022;27;45389;-72
2023/02/23 07:08:40;;;;;;;;;22.33;20.67;;;;;10.36;100.00;100980.63;5141131;27;45384;-72
2023/02/23 07:11:14;;;;;;;;;18.33;16.33;;;;;10.40;100.00;100981.13;5141147;27;45348;-72
2023/02/23 07:13:41;;;;;;;;;22.00;18.00;;;;;10.34;100.00;100981.78;5140910;27;45347;-72
2023/02/23 07:16:07;;;;;;;;;25.33;19.67;;;;;10.40;100.00;100994.41;5119097;27;45522;-72
2023/02/23 07:18:32;;;;;;;;;19.33;16.67;;;;;10.40;100.00;100993.56;5135149;27;45538;-73
2023/02/23 07:20:58;;;;;;;;;20.67;19.00;;;;;10.43;100.00;100998.56;5133862;27;45407;-72
2023/02/23 07:23:23;;;;;;;;;17.67;17.33;;;;;10.42;100.00;101000.38;5126195;27;45282;-72
2023/02/23 07:25:55;;;;;;;;;19.33;16.00;;;;;10.42;100.00;100996.91;5140637;27;45352;-72
2023/02/23 07:28:21;;;;;;;;;17.00;17.00;;;;;10.43;100.00;100995.91;5140657;27;45506;-72
2023/02/23 07:30:48;;;;;;;;;18.33;16.00;;;;;10.48;100.00;101010.38;5141021;27;45353;-72
2023/02/23 07:33:14;;;;;;;;;19.67;17.33;;;;;10.49;100.00;101013.88;5140392;27;45522;-72
2023/02/23 07:35:41;;;;;;;;;17.67;16.00;;;;;10.55;100.00;101015.88;5140488;27;45191;-72
2023/02/23 07:38:06;;;;;;;;;18.67;17.00;;;;;10.57;100.00;101013.03;5140959;27;45292;-71
2023/02/23 07:40:31;;;;;;;;;20.33;17.00;;;;;10.52;100.00;101016.19;5139287;27;45354;-72
2023/02/23 07:42:57;;;;;;;;;18.00;16.67;;;;;10.62;100.00;101023.19;5140934;27;45279;-72
2023/02/23 07:45:23;;;;;;;;;15.00;15.00;;;;;10.69;100.00;101021.50;5140620;27;45482;-72
2023/02/23 07:47:49;;;;;;;;;20.67;17.33;;;;;10.73;100.00;101025.47;5122031;27;47108;-71
2023/02/23 07:50:14;;;;;;;;;17.33;17.33;;;;;10.76;100.00;101027.81;5140625;27;45416;-71
2023/02/23 07:52:41;;;;;;;;;22.33;19.33;;;;;10.86;100.00;101035.59;5140796;27;45409;-71
2023/02/23 07:55:07;;;;;;;;;22.67;21.00;;;;;10.85;100.00;101032.13;5140691;27;45239;-71
2023/02/23 07:57:33;;;;;;;;;22.00;20.00;;;;;10.88;100.00;101036.25;5140390;27;45374;-71
2023/02/23 07:59:59;;;;;;;;;18.33;18.33;;;;;10.95;100.00;101039.91;5140418;27;45337;-72
2023/02/23 08:02:25;;;;;;;;;10.00;8.00;;;;;10.98;100.00;101044.03;5140466;27;45455;-71
2023/02/23 08:04:53;;;;;;;;;22.00;19.67;;;;;11.03;100.00;101047.03;5140524;27;45223;-72
2023/02/23 08:07:19;;;;;;;;;20.00;18.00;;;;;11.08;100.00;101051.84;5139929;27;46502;-72
2023/02/23 08:09:44;;;;;;;;;21.00;20.00;;;;;11.06;100.00;101048.50;5140526;27;45384;-74
2023/02/23 08:12:10;;;;;;;;;27.00;21.67;;;;;11.04;100.00;101046.03;5140410;27;45298;-72
2023/02/23 08:14:35;;;;;;;;;25.67;23.00;;;;;11.03;100.00;101043.53;5143369;27;45355;-72
2023/02/23 08:17:01;;;;;;;;;26.00;24.33;;;;;11.02;100.00;101040.06;5143535;27;45500;-72
2023/02/23 08:19:27;;;;;;;;;28.00;22.33;;;;;11.08;100.00;101052.66;5143788;27;45695;-72
2023/02/23 08:21:52;;;;;;;;;19.00;19.00;;;;;11.06;100.00;101046.69;5143798;27;45400;-72
2023/02/23 08:24:17;;;;;;;;;22.00;21.33;;;;;11.13;100.00;101048.69;5139099;27;45364;-73
2023/02/23 08:26:43;;;;;;;;;25.33;22.67;;;;;11.18;100.00;101051.66;5139631;27;46389;-75
2023/02/23 08:29:09;;;;;;;;;26.67;23.00;;;;;11.18;100.00;101041.84;5136510;27;45466;-72
2023/02/23 08:31:37;;;;;;;;;22.33;19.67;;;;;11.21;100.00;101036.19;5136337;27;45401;-73
2023/02/23 08:34:02;;;;;;;;;19.00;18.67;;;;;11.22;100.00;101042.31;5132364;27;45509;-73
2023/02/23 08:36:28;;;;;;;;;26.00;23.00;;;;;11.30;100.00;101047.63;5134304;27;46025;-73
2023/02/23 08:38:53;;;;;;;;;25.33;22.00;;;;;11.39;100.00;101043.09;5137506;27;45400;-73
2023/02/23 08:41:19;;;;;;;;;26.67;24.00;;;;;11.43;100.00;101044.41;5123740;27;45569;-72
2023/02/23 08:43:45;;;;;;;;;19.33;18.33;;;;;11.44;100.00;101046.06;5136574;27;45381;-73
2023/02/23 08:46:11;;;;;;;;;21.67;21.00;;;;;11.50;100.00;101049.88;5123209;27;47412;-73
2023/02/23 08:48:39;;;;;;;;;23.00;18.67;;;;;11.52;100.00;101047.88;5142839;27;45458;-73
2023/02/23 08:51:05;;;;;;;;;27.00;22.00;;;;;11.50;100.00;101047.22;5137973;27;45300;-73
2023/02/23 08:53:31;;;;;;;;;24.00;19.00;;;;;11.55;100.00;101058.16;5121876;27;46105;-74
2023/02/23 08:56:00;;;;;;;;;23.33;22.00;;;;;11.65;100.00;101057.97;5137665;27;46240;-73
2023/02/23 08:58:27;;;;;;;;;19.67;19.67;;;;;11.73;100.00;101059.75;5135881;27;45361;-72
2023/02/23 09:00:53;;;;;;;;;23.00;21.00;;;;;11.81;100.00;101059.72;5120525;27;45421;-73
2023/02/23 09:03:22;;;;;;;;;23.00;22.67;;;;;11.79;100.00;101048.41;5135094;27;45396;-72
2023/02/23 09:05:48;;;;;;;;;22.67;20.33;;;;;11.89;100.00;101052.69;5135197;27;45385;-72
2023/02/23 09:08:14;;;;;;;;;23.33;19.67;;;;;11.89;100.00;101066.84;5136555;27;45276;-73
2023/02/23 09:10:42;;;;;;;;;10.67;10.67;;;;;11.90;100.00;101065.00;5114942;27;45444;-73
2023/02/23 09:13:08;;;;;;;;;17.00;17.00;;;;;11.96;100.00;101064.28;5142947;27;45343;-72
2023/02/23 09:15:33;;;;;;;;;20.67;16.33;;;;;12.04;100.00;101068.75;5142790;27;45416;-72
2023/02/23 09:18:02;;;;;;;;;20.67;15.33;;;;;12.04;100.00;101066.94;5142874;27;45414;-72
2023/02/23 09:20:27;;;;;;;;;18.00;18.00;;;;;12.03;100.00;101075.09;5142907;27;45301;-72
2023/02/23 09:22:53;;;;;;;;;20.00;18.00;;;;;12.00;100.00;101069.09;5124019;27;47400;-72
2023/02/23 09:25:21;;;;;;;;;21.00;20.00;;;;;11.96;100.00;101057.13;5141509;27;45392;-72
2023/02/23 09:27:56;;;;;;;;;20.67;18.33;;;;;12.04;100.00;101063.41;5142489;27;45368;-72
2023/02/23 09:30:22;;;;;;;;;16.00;15.00;;;;;12.06;100.00;101064.09;5124276;27;45514;-72
2023/02/23 09:32:49;;;;;;;;;19.33;18.00;;;;;12.06;100.00;101058.75;5124022;27;45534;-74
2023/02/23 09:35:16;;;;;;;;;18.67;18.33;;;;;12.11;100.00;101061.75;5142148;27;45266;-73
2023/02/23 09:37:53;;;;;;;;;22.33;16.00;;;;;12.21;100.00;101065.00;5140910;27;45223;-73
2023/02/23 09:40:47;;;;;;;;;31.00;28.33;;;;;12.30;100.00;101062.28;5136737;27;45504;-73
2023/02/23 09:43:28;;;;;;;;;18.33;16.00;;;;;12.28;100.00;101057.13;5142182;27;45399;-73
2023/02/23 09:46:35;;;;;;;;;17.67;15.67;;;;;12.35;100.00;101058.09;5142477;27;46213;-73
2023/02/23 09:49:04;;;;;;;;;20.00;19.67;;;;;12.43;100.00;101067.84;5092330;27;45286;-73
2023/02/23 09:51:39;;;;;;;;;20.33;18.67;;;;;12.43;100.00;101051.88;5140358;27;45303;-73
2023/02/23 09:54:09;;;;;;;;;24.67;24.00;;;;;12.44;100.00;101066.00;5142337;27;45356;-72
2023/02/23 09:56:46;;;;;;;;;34.33;29.67;;;;;12.45;100.00;101063.16;5141954;27;45408;-73
2023/02/23 09:59:17;;;;;;;;;24.33;24.00;;;;;12.51;100.00;101056.28;5123431;27;45259;-72
2023/02/23 10:02:29;;;;;;;;;56.25;43.00;;;;;12.67;100.00;101065.16;5142287;27;45399;-73
2023/02/23 10:05:03;;;;;;;;;16.00;14.33;;;;;12.70;100.00;101060.31;5057413;28;45403;-73
2023/02/23 10:07:56;;;;;;;;;11.33;11.33;;;;;12.75;100.00;101063.25;5110948;27;47115;-73
2023/02/23 10:10:32;;;;;;;;;14.67;12.67;;;;;12.80;100.00;101064.53;5142133;27;45226;-73
2023/02/23 10:13:14;;;;;;;;;35.00;29.00;;;;;12.84;100.00;101060.50;5129581;27;45212;-74
2023/02/23 10:15:51;;;;;;;;;29.67;27.00;;;;;12.92;100.00;101064.91;5122556;27;47602;-74
2023/02/23 10:18:26;;;;;;;;;10.00;8.33;;;;;12.97;100.00;101070.56;5141854;27;46096;-74
2023/02/23 10:21:10;;;;;;;;;43.00;35.67;;;;;12.97;100.00;101081.22;5141737;27;45282;-74
2023/02/23 10:23:41;;;;;;;;;18.67;18.67;;;;;13.02;100.00;101080.69;5141778;27;45297;-73
2023/02/23 10:26:15;;;;;;;;;33.33;30.33;;;;;13.08;100.00;101077.28;5141882;27;45405;-74
2023/02/23 10:28:40;;;;;;;;;16.33;14.00;;;;;13.19;100.00;101075.97;5140105;27;46777;-73
2023/02/23 10:31:25;;;;;;;;;17.00;14.33;;;;;13.23;100.00;101070.09;5129695;27;45919;-76
2023/02/23 10:33:53;;;;;;;;;16.67;15.67;;;;;13.27;100.00;101075.91;5130248;27;45550;-73
2023/02/23 10:36:41;;;;;;;;;14.33;13.33;;;;;13.28;100.00;101082.06;5111724;27;45362;-74
2023/02/23 10:39:08;;;;;;;;;20.00;17.33;;;;;13.26;100.00;101076.94;5141266;27;45247;-73
2023/02/23 10:41:35;;;;;;;;;14.33;14.33;;;;;13.26;100.00;101076.94;5140368;27;45370;-74
2023/02/23 10:44:01;;;;;;;;;17.33;15.00;;;;;13.26;100.00;101079.59;5118363;27;45345;-76
2023/02/23 10:46:34;;;;;;;;;16.33;16.00;;;;;13.28;100.00;101082.06;5136147;27;45562;-74
2023/02/23 10:49:00;;;;;;;;;19.00;17.33;;;;;13.35;100.00;101083.00;5119312;27;47723;-74
2023/02/23 10:51:35;;;;;;;;;18.33;17.33;;;;;13.33;100.00;101077.84;5139367;27;45708;-74
2023/02/23 10:54:43;;;;;;;;;16.67;16.67;;;;;13.40;100.00;101091.28;5141726;27;45408;-74
2023/02/23 10:57:15;;;;;;;;;18.67;17.00;;;;;13.40;100.00;101085.94;5109947;27;47519;-74
2023/02/23 10:59:58;;;;;;;;;19.33;17.00;;;;;13.41;100.00;101079.56;5139085;27;45350;-74
2023/02/23 11:02:25;;;;;;;;;36.33;31.00;;;;;13.47;100.00;101084.19;5140876;27;45345;-74
2023/02/23 11:04:54;;;;;;;;;11.67;11.67;;;;;13.48;100.00;101088.53;5141332;27;45340;-74
2023/02/23 11:07:28;;;;;;;;;17.67;15.00;;;;;13.50;100.00;101086.50;5141003;27;45295;-74
2023/02/23 11:09:54;;;;;;;;;22.67;19.67;;;;;13.54;100.00;101078.13;5141246;27;46226;-74
2023/02/23 11:12:40;;;;;;;;;15.33;15.00;;;;;13.65;100.00;101087.53;5140949;27;45289;-74
2023/02/23 11:15:24;;;;;;;;;15.67;15.00;;;;;13.65;100.00;101085.69;5141294;27;45224;-73
2023/02/23 11:18:01;;;;;;;;;20.00;19.33;;;;;13.61;100.00;101073.69;5128715;27;45452;-74
2023/02/23 11:20:38;;;;;;;;;20.00;18.67;;;;;13.62;100.00;101075.38;5121980;27;47662;-74
2023/02/23 11:23:19;;;;;;;;;20.00;18.33;;;;;13.59;100.00;101070.41;5122331;27;46060;-74
2023/02/23 11:25:45;;;;;;;;;51.50;41.25;;;;;13.66;100.00;101068.63;5122335;27;45383;-74
2023/02/23 11:28:23;;;;;;;;;14.33;13.33;;;;;13.72;100.00;101065.22;5140750;27;45336;-74
2023/02/23 11:30:51;;;;;;;;;81.00;70.00;;;;;13.75;100.00;101069.34;5108207;27;47279;-74
2023/02/23 11:33:25;;;;;;;;;41.00;32.00;;;;;13.73;100.00;101058.03;5133420;27;45462;-74
2023/02/23 11:36:11;;;;;;;;;45.33;35.00;;;;;13.90;100.00;101066.66;5130266;27;45396;-73
2023/02/23 11:38:47;;;;;;;;;20.00;18.67;;;;;14.04;100.00;101056.09;5137077;27;45393;-77
2023/02/23 11:41:22;;;;;;;;;16.33;15.67;;;;;14.11;100.00;101054.31;5118267;27;45699;-74
2023/02/23 11:43:56;;;;;;;;;20.33;17.33;;;;;14.25;100.00;101057.97;5128241;27;45487;-74
2023/02/23 11:46:21;;;;;;;;;26.00;22.67;;;;;14.28;100.00;101046.91;5139680;27;45313;-73
2023/02/23 11:48:58;;;;;;;;;18.00;16.33;;;;;14.32;100.00;101040.13;5142092;27;45406;-74
2023/02/23 11:51:39;;;;;;;;;22.00;21.00;;;;;14.29;100.00;101040.53;5143428;27;47446;-74
2023/02/23 11:54:09;;;;;;;;;22.00;18.33;;;;;14.25;100.00;101037.38;5127053;27;45392;-73
2023/02/23 11:56:35;;;;;;;;;51.33;39.00;;;;;14.24;100.00;101041.09;5132361;27;45562;-75
2023/02/23 11:59:07;;;;;;;;;23.67;22.00;;;;;14.24;100.00;101035.75;5143945;27;45285;-75
2023/02/23 12:01:50;;;;;;;;;32.00;22.33;;;;;14.30;100.00;101026.13;5125022;27;47206;-73
2023/02/23 12:05:03;;;;;;;;;27.33;26.00;;;;;14.34;100.00;101031.94;5125100;27;45388;-75
2023/02/23 12:07:37;;;;;;;;;25.00;24.00;;;;;14.33;100.00;101032.94;5059181;28;45280;-74
2023/02/23 12:10:25;;;;;;;;;27.00;22.00;;;;;14.33;100.00;101033.75;5127436;27;45324;-74
2023/02/23 12:12:56;;;;;;;;;21.00;20.00;;;;;14.43;100.00;101029.94;5142692;27;45519;-76
2023/02/23 12:15:34;;;;;;;;;16.67;16.67;;;;;14.57;100.00;101033.53;5143408;27;45453;-76
2023/02/23 12:18:10;;;;;;;;;16.33;16.33;;;;;14.65;100.00;101036.09;5143752;27;45407;-73
2023/02/23 12:20:42;;;;;;;;;25.00;24.33;;;;;14.68;100.00;101038.38;5143269;27;45372;-73
2023/02/23 12:23:14;;;;;;;;;36.33;32.00;;;;;14.66;100.00;101035.06;5143804;27;45462;-73
2023/02/23 12:26:04;;;;;;;;;49.33;38.67;;;;;14.64;100.00;101031.75;5143368;27;45235;-73
2023/02/23 12:28:37;;;;;;;;;39.00;32.33;;;;;14.61;100.00;101024.13;5124881;27;45506;-73
2023/02/23 12:31:28;;;;;;;;;16.33;16.00;;;;;14.68;100.00;101022.31;5143792;27;45222;-73
2023/02/23 12:34:02;;;;;;;;;17.33;17.33;;;;;14.71;100.00;101026.44;5143118;27;46181;-74